sensor_id;sensor_type;location;lat;lon;timestamp;temperature;humidity
36654;DHT22;22650;49.350;20.898;2023-12-07T00:01:41;0.80;99.90
36654;DHT22;22650;49.350;20.898;2023-12-07T00:04:15;0.80;99.90
36654;DHT22;22650;49.350;20.898;2023-12-07T00:06:48;0.80;99.90
36654;DHT22;22650;49.350;20.898;2023-12-07T00:09:23;0.70;99.90
36654;DHT22;22650;49.350;20.898;2023-12-07T00:11:57;0.70;99.90
36654;DHT22;22650;49.350;20.898;2023-12-07T00:14:30;0.70;99.90
36654;DHT22;22650;49.350;20.898;2023-12-07T00:17:04;0.60;99.90
36654;DHT22;22650;49.350;20.898;2023-12-07T00:19:37;0.60;99.90
36654;DHT22;22650;49.350;20.898;2023-12-07T00:22:11;0.60;99.90
36654;DHT22;22650;49.350;20.898;2023-12-07T00:24:46;0.60;99.90
36654;DHT22;22650;49.350;20.898;2023-12-07T00:27:20;0.60;99.90
36654;DHT22;22650;49.350;20.898;2023-12-07T00:29:54;0.60;99.90
36654;DHT22;22650;49.350;20.898;2023-12-07T00:32:28;0.60;99.90
36654;DHT22;22650;49.350;20.898;2023-12-07T00:35:02;0.50;99.90
36654;DHT22;22650;49.350;20.898;2023-12-07T00:37:35;0.50;99.90
36654;DHT22;22650;49.350;20.898;2023-12-07T00:40:11;0.50;99.90
36654;DHT22;22650;49.350;20.898;2023-12-07T00:42:45;0.50;99.90
36654;DHT22;22650;49.350;20.898;2023-12-07T00:45:19;0.50;99.90
36654;DHT22;22650;49.350;20.898;2023-12-07T00:47:53;0.60;99.90
36654;DHT22;22650;49.350;20.898;2023-12-07T00:50:26;0.60;99.90
36654;DHT22;22650;49.350;20.898;2023-12-07T00:53:00;0.60;99.90
36654;DHT22;22650;49.350;20.898;2023-12-07T00:55:35;0.60;99.90
36654;DHT22;22650;49.350;20.898;2023-12-07T00:58:09;0.70;99.90
36654;DHT22;22650;49.350;20.898;2023-12-07T01:00:42;0.70;99.90
36654;DHT22;22650;49.350;20.898;2023-12-07T01:03:16;0.70;99.90
36654;DHT22;22650;49.350;20.898;2023-12-07T01:05:50;0.70;99.90
36654;DHT22;22650;49.350;20.898;2023-12-07T01:08:23;0.70;99.90
36654;DHT22;22650;49.350;20.898;2023-12-07T01:10:58;0.60;99.90
36654;DHT22;22650;49.350;20.898;2023-12-07T01:13:32;0.70;99.90
36654;DHT22;22650;49.350;20.898;2023-12-07T01:16:06;0.70;99.90
36654;DHT22;22650;49.350;20.898;2023-12-07T01:18:40;0.70;99.90
36654;DHT22;22650;49.350;20.898;2023-12-07T01:21:13;0.70;99.90
36654;DHT22;22650;49.350;20.898;2023-12-07T01:23:47;0.60;99.90
36654;DHT22;22650;49.350;20.898;2023-12-07T01:26:32;0.60;99.90
36654;DHT22;22650;49.350;20.898;2023-12-07T01:29:06;0.60;99.90
36654;DHT22;22650;49.350;20.898;2023-12-07T01:31:40;0.60;99.90
36654;DHT22;22650;49.350;20.898;2023-12-07T01:34:13;0.70;99.90
36654;DHT22;22650;49.350;20.898;2023-12-07T01:36:47;0.70;99.90
36654;DHT22;22650;49.350;20.898;2023-12-07T01:39:21;0.70;99.90
36654;DHT22;22650;49.350;20.898;2023-12-07T01:41:56;0.70;99.90
36654;DHT22;22650;49.350;20.898;2023-12-07T01:44:29;0.70;99.90
36654;DHT22;22650;49.350;20.898;2023-12-07T01:47:04;0.70;99.90
36654;DHT22;22650;49.350;20.898;2023-12-07T01:49:40;0.70;99.90
36654;DHT22;22650;49.350;20.898;2023-12-07T01:52:14;0.70;99.90
36654;DHT22;22650;49.350;20.898;2023-12-07T01:54:48;0.70;99.90
36654;DHT22;22650;49.350;20.898;2023-12-07T01:57:24;0.70;99.90
36654;DHT22;22650;49.350;20.898;2023-12-07T01:59:58;0.60;99.90
36654;DHT22;22650;49.350;20.898;2023-12-07T02:02:32;0.60;99.90
36654;DHT22;22650;49.350;20.898;2023-12-07T02:05:06;0.60;99.90
36654;DHT22;22650;49.350;20.898;2023-12-07T02:07:41;0.50;99.90
36654;DHT22;22650;49.350;20.898;2023-12-07T02:10:15;0.50;99.90
36654;DHT22;22650;49.350;20.898;2023-12-07T02:12:50;0.50;99.90
36654;DHT22;22650;49.350;20.898;2023-12-07T02:15:25;0.50;99.90
36654;DHT22;22650;49.350;20.898;2023-12-07T02:18:03;0.40;99.90
36654;DHT22;22650;49.350;20.898;2023-12-07T02:20:44;0.40;99.90
36654;DHT22;22650;49.350;20.898;2023-12-07T02:23:20;0.40;99.90
36654;DHT22;22650;49.350;20.898;2023-12-07T02:29:02;0.40;99.90
36654;DHT22;22650;49.350;20.898;2023-12-07T02:31:35;0.30;99.90
36654;DHT22;22650;49.350;20.898;2023-12-07T02:34:09;0.30;99.90
36654;DHT22;22650;49.350;20.898;2023-12-07T02:36:43;0.30;99.90
36654;DHT22;22650;49.350;20.898;2023-12-07T02:39:20;0.30;99.90
36654;DHT22;22650;49.350;20.898;2023-12-07T02:41:54;0.30;99.90
36654;DHT22;22650;49.350;20.898;2023-12-07T02:44:30;0.30;99.90
36654;DHT22;22650;49.350;20.898;2023-12-07T02:47:05;0.30;99.90
36654;DHT22;22650;49.350;20.898;2023-12-07T02:49:39;0.20;99.90
36654;DHT22;22650;49.350;20.898;2023-12-07T02:52:13;0.20;99.90
36654;DHT22;22650;49.350;20.898;2023-12-07T02:54:46;0.20;99.90
36654;DHT22;22650;49.350;20.898;2023-12-07T02:57:20;0.20;99.90
36654;DHT22;22650;49.350;20.898;2023-12-07T02:59:55;0.20;99.90
36654;DHT22;22650;49.350;20.898;2023-12-07T03:02:29;0.20;99.90
36654;DHT22;22650;49.350;20.898;2023-12-07T03:05:03;0.20;99.90
36654;DHT22;22650;49.350;20.898;2023-12-07T03:07:36;0.20;99.90
36654;DHT22;22650;49.350;20.898;2023-12-07T03:10:10;0.20;99.90
36654;DHT22;22650;49.350;20.898;2023-12-07T03:12:44;0.20;99.90
36654;DHT22;22650;49.350;20.898;2023-12-07T03:15:19;0.20;99.90
36654;DHT22;22650;49.350;20.898;2023-12-07T03:17:53;0.20;99.90
36654;DHT22;22650;49.350;20.898;2023-12-07T03:20:26;0.10;99.90
36654;DHT22;22650;49.350;20.898;2023-12-07T03:23:00;0.10;99.90
36654;DHT22;22650;49.350;20.898;2023-12-07T03:25:34;0.10;99.90
36654;DHT22;22650;49.350;20.898;2023-12-07T03:28:08;0.10;99.90
36654;DHT22;22650;49.350;20.898;2023-12-07T03:30:43;0.10;99.90
36654;DHT22;22650;49.350;20.898;2023-12-07T03:33:16;0.10;99.90
36654;DHT22;22650;49.350;20.898;2023-12-07T03:35:50;0.10;99.90
36654;DHT22;22650;49.350;20.898;2023-12-07T03:38:23;0.10;99.90
36654;DHT22;22650;49.350;20.898;2023-12-07T03:40:57;0.10;99.90
36654;DHT22;22650;49.350;20.898;2023-12-07T03:43:31;0.10;99.90
36654;DHT22;22650;49.350;20.898;2023-12-07T03:46:07;0.10;99.90
36654;DHT22;22650;49.350;20.898;2023-12-07T03:48:40;0.10;99.90
36654;DHT22;22650;49.350;20.898;2023-12-07T03:51:15;0.00;99.90
36654;DHT22;22650;49.350;20.898;2023-12-07T03:53:49;0.00;99.90
36654;DHT22;22650;49.350;20.898;2023-12-07T03:56:25;0.00;99.90
36654;DHT22;22650;49.350;20.898;2023-12-07T03:58:59;0.00;99.90
36654;DHT22;22650;49.350;20.898;2023-12-07T04:01:34;-0.10;99.90
36654;DHT22;22650;49.350;20.898;2023-12-07T04:04:07;-0.10;99.90
36654;DHT22;22650;49.350;20.898;2023-12-07T04:06:41;-0.10;99.90
36654;DHT22;22650;49.350;20.898;2023-12-07T04:09:15;-0.10;99.90
36654;DHT22;22650;49.350;20.898;2023-12-07T04:11:48;-0.10;99.90
36654;DHT22;22650;49.350;20.898;2023-12-07T04:14:22;-0.10;99.90
36654;DHT22;22650;49.350;20.898;2023-12-07T04:16:57;-0.10;99.90
36654;DHT22;22650;49.350;20.898;2023-12-07T04:19:30;-0.10;99.90
36654;DHT22;22650;49.350;20.898;2023-12-07T04:22:04;-0.10;99.90
36654;DHT22;22650;49.350;20.898;2023-12-07T04:24:38;-0.10;99.90
36654;DHT22;22650;49.350;20.898;2023-12-07T04:27:12;-0.10;99.90
36654;DHT22;22650;49.350;20.898;2023-12-07T04:29:46;-0.20;99.90
36654;DHT22;22650;49.350;20.898;2023-12-07T04:32:22;-0.20;99.90
36654;DHT22;22650;49.350;20.898;2023-12-07T04:34:56;-0.20;99.90
36654;DHT22;22650;49.350;20.898;2023-12-07T04:37:29;-0.20;99.90
36654;DHT22;22650;49.350;20.898;2023-12-07T04:40:03;-0.20;99.90
36654;DHT22;22650;49.350;20.898;2023-12-07T04:42:37;-0.20;99.90
36654;DHT22;22650;49.350;20.898;2023-12-07T04:45:11;-0.20;99.90
36654;DHT22;22650;49.350;20.898;2023-12-07T04:47:46;-0.20;99.90
36654;DHT22;22650;49.350;20.898;2023-12-07T04:50:20;-0.20;99.90
36654;DHT22;22650;49.350;20.898;2023-12-07T04:52:53;-0.30;99.90
36654;DHT22;22650;49.350;20.898;2023-12-07T04:55:27;-0.30;99.90
36654;DHT22;22650;49.350;20.898;2023-12-07T04:58:01;-0.30;99.90
36654;DHT22;22650;49.350;20.898;2023-12-07T05:00:34;-0.30;99.90
36654;DHT22;22650;49.350;20.898;2023-12-07T05:03:09;-0.30;99.90
36654;DHT22;22650;49.350;20.898;2023-12-07T05:05:43;-0.30;99.90
36654;DHT22;22650;49.350;20.898;2023-12-07T05:08:17;-0.30;99.90
36654;DHT22;22650;49.350;20.898;2023-12-07T05:10:50;-0.30;99.90
36654;DHT22;22650;49.350;20.898;2023-12-07T05:13:24;-0.30;99.90
36654;DHT22;22650;49.350;20.898;2023-12-07T05:15:58;-0.30;99.90
36654;DHT22;22650;49.350;20.898;2023-12-07T05:18:33;-0.40;99.90
36654;DHT22;22650;49.350;20.898;2023-12-07T05:21:07;-0.40;99.90
36654;DHT22;22650;49.350;20.898;2023-12-07T05:23:41;-0.40;99.90
36654;DHT22;22650;49.350;20.898;2023-12-07T05:26:14;-0.40;99.90
36654;DHT22;22650;49.350;20.898;2023-12-07T05:28:48;-0.40;99.90
36654;DHT22;22650;49.350;20.898;2023-12-07T05:31:22;-0.40;99.90
36654;DHT22;22650;49.350;20.898;2023-12-07T05:33:57;-0.40;99.90
36654;DHT22;22650;49.350;20.898;2023-12-07T05:36:31;-0.40;99.90
36654;DHT22;22650;49.350;20.898;2023-12-07T05:39:05;-0.40;99.90
36654;DHT22;22650;49.350;20.898;2023-12-07T05:41:39;-0.40;99.90
36654;DHT22;22650;49.350;20.898;2023-12-07T05:44:13;-0.40;99.90
36654;DHT22;22650;49.350;20.898;2023-12-07T05:46:54;-0.40;99.90
36654;DHT22;22650;49.350;20.898;2023-12-07T05:49:28;-0.40;99.90
36654;DHT22;22650;49.350;20.898;2023-12-07T05:52:02;-0.40;99.90
36654;DHT22;22650;49.350;20.898;2023-12-07T05:54:36;-0.40;99.90
36654;DHT22;22650;49.350;20.898;2023-12-07T05:57:10;-0.30;99.90
36654;DHT22;22650;49.350;20.898;2023-12-07T05:59:43;-0.30;99.90
36654;DHT22;22650;49.350;20.898;2023-12-07T06:02:17;-0.30;99.90
36654;DHT22;22650;49.350;20.898;2023-12-07T06:04:52;-0.30;99.90
36654;DHT22;22650;49.350;20.898;2023-12-07T06:07:27;-0.30;99.90
36654;DHT22;22650;49.350;20.898;2023-12-07T06:10:00;-0.30;99.90
36654;DHT22;22650;49.350;20.898;2023-12-07T06:12:34;-0.40;99.90
36654;DHT22;22650;49.350;20.898;2023-12-07T06:15:09;-0.40;99.90
36654;DHT22;22650;49.350;20.898;2023-12-07T06:17:42;-0.40;99.90
36654;DHT22;22650;49.350;20.898;2023-12-07T06:20:17;-0.30;99.90
36654;DHT22;22650;49.350;20.898;2023-12-07T06:22:51;-0.40;99.90
36654;DHT22;22650;49.350;20.898;2023-12-07T06:25:25;-0.40;99.90
36654;DHT22;22650;49.350;20.898;2023-12-07T06:27:58;-0.40;99.90
36654;DHT22;22650;49.350;20.898;2023-12-07T06:30:32;-0.40;99.90
36654;DHT22;22650;49.350;20.898;2023-12-07T06:33:06;-0.40;99.90
36654;DHT22;22650;49.350;20.898;2023-12-07T06:35:42;-0.40;99.90
36654;DHT22;22650;49.350;20.898;2023-12-07T06:38:16;-0.40;99.90
36654;DHT22;22650;49.350;20.898;2023-12-07T06:40:52;-0.40;99.90
36654;DHT22;22650;49.350;20.898;2023-12-07T06:43:26;-0.40;99.90
36654;DHT22;22650;49.350;20.898;2023-12-07T06:46:00;-0.40;99.90
36654;DHT22;22650;49.350;20.898;2023-12-07T06:48:34;-0.40;99.90
36654;DHT22;22650;49.350;20.898;2023-12-07T06:51:09;-0.40;99.90
36654;DHT22;22650;49.350;20.898;2023-12-07T06:53:42;-0.40;99.90
36654;DHT22;22650;49.350;20.898;2023-12-07T06:56:16;-0.40;99.90
36654;DHT22;22650;49.350;20.898;2023-12-07T06:58:50;-0.40;99.90
36654;DHT22;22650;49.350;20.898;2023-12-07T07:01:23;-0.40;99.90
36654;DHT22;22650;49.350;20.898;2023-12-07T07:03:57;-0.40;99.90
36654;DHT22;22650;49.350;20.898;2023-12-07T07:06:32;-0.40;99.90
36654;DHT22;22650;49.350;20.898;2023-12-07T07:09:05;-0.40;99.90
36654;DHT22;22650;49.350;20.898;2023-12-07T07:11:39;-0.30;99.90
36654;DHT22;22650;49.350;20.898;2023-12-07T07:14:13;-0.30;99.90
36654;DHT22;22650;49.350;20.898;2023-12-07T07:16:46;-0.30;99.90
36654;DHT22;22650;49.350;20.898;2023-12-07T07:19:20;-0.30;99.90
36654;DHT22;22650;49.350;20.898;2023-12-07T07:21:55;-0.30;99.90
36654;DHT22;22650;49.350;20.898;2023-12-07T07:24:28;-0.20;99.90
36654;DHT22;22650;49.350;20.898;2023-12-07T07:27:02;-0.20;99.90
36654;DHT22;22650;49.350;20.898;2023-12-07T07:29:36;-0.20;99.90
36654;DHT22;22650;49.350;20.898;2023-12-07T07:32:09;-0.20;99.90
36654;DHT22;22650;49.350;20.898;2023-12-07T07:34:43;-0.20;99.90
36654;DHT22;22650;49.350;20.898;2023-12-07T07:37:18;-0.20;99.90
36654;DHT22;22650;49.350;20.898;2023-12-07T07:39:52;-0.20;99.90
36654;DHT22;22650;49.350;20.898;2023-12-07T07:42:26;-0.20;99.90
36654;DHT22;22650;49.350;20.898;2023-12-07T07:45:00;-0.20;99.90
36654;DHT22;22650;49.350;20.898;2023-12-07T07:47:34;-0.20;99.90
36654;DHT22;22650;49.350;20.898;2023-12-07T07:50:08;-0.20;99.90
36654;DHT22;22650;49.350;20.898;2023-12-07T07:52:45;-0.10;99.90
36654;DHT22;22650;49.350;20.898;2023-12-07T07:55:19;-0.10;99.90
36654;DHT22;22650;49.350;20.898;2023-12-07T07:57:52;-0.10;99.90
36654;DHT22;22650;49.350;20.898;2023-12-07T08:00:26;-0.10;99.90
36654;DHT22;22650;49.350;20.898;2023-12-07T08:03:00;-0.10;99.90
36654;DHT22;22650;49.350;20.898;2023-12-07T08:05:34;-0.10;99.90
36654;DHT22;22650;49.350;20.898;2023-12-07T08:08:10;-0.10;99.90
36654;DHT22;22650;49.350;20.898;2023-12-07T08:10:44;0.00;99.90
36654;DHT22;22650;49.350;20.898;2023-12-07T08:13:27;-0.10;99.90
36654;DHT22;22650;49.350;20.898;2023-12-07T08:16:01;-0.10;99.90
36654;DHT22;22650;49.350;20.898;2023-12-07T08:18:34;-0.10;99.90
36654;DHT22;22650;49.350;20.898;2023-12-07T08:21:08;-0.10;99.90
36654;DHT22;22650;49.350;20.898;2023-12-07T08:23:43;-0.10;99.90
36654;DHT22;22650;49.350;20.898;2023-12-07T08:26:17;-0.10;99.90
36654;DHT22;22650;49.350;20.898;2023-12-07T08:28:51;-0.10;99.90
36654;DHT22;22650;49.350;20.898;2023-12-07T08:31:26;-0.10;99.90
36654;DHT22;22650;49.350;20.898;2023-12-07T08:34:00;0.00;99.90
36654;DHT22;22650;49.350;20.898;2023-12-07T08:36:34;0.00;99.90
36654;DHT22;22650;49.350;20.898;2023-12-07T08:39:09;0.10;99.90
36654;DHT22;22650;49.350;20.898;2023-12-07T08:41:43;0.20;99.90
36654;DHT22;22650;49.350;20.898;2023-12-07T08:44:16;0.20;99.90
36654;DHT22;22650;49.350;20.898;2023-12-07T08:46:50;0.30;99.90
36654;DHT22;22650;49.350;20.898;2023-12-07T08:49:23;0.30;99.90
36654;DHT22;22650;49.350;20.898;2023-12-07T08:51:58;0.40;99.90
36654;DHT22;22650;49.350;20.898;2023-12-07T08:54:53;0.40;99.90
36654;DHT22;22650;49.350;20.898;2023-12-07T08:57:26;0.30;99.90
36654;DHT22;22650;49.350;20.898;2023-12-07T09:00:00;0.40;99.90
36654;DHT22;22650;49.350;20.898;2023-12-07T09:02:34;0.40;99.90
36654;DHT22;22650;49.350;20.898;2023-12-07T09:05:18;0.40;99.90
36654;DHT22;22650;49.350;20.898;2023-12-07T09:07:52;0.50;99.90
36654;DHT22;22650;49.350;20.898;2023-12-07T09:10:27;0.50;99.90
36654;DHT22;22650;49.350;20.898;2023-12-07T09:13:01;0.50;99.90
36654;DHT22;22650;49.350;20.898;2023-12-07T09:15:35;0.60;99.90
36654;DHT22;22650;49.350;20.898;2023-12-07T09:18:09;0.60;99.90
36654;DHT22;22650;49.350;20.898;2023-12-07T09:20:44;0.60;99.90
36654;DHT22;22650;49.350;20.898;2023-12-07T09:23:19;0.60;99.90
36654;DHT22;22650;49.350;20.898;2023-12-07T09:25:54;0.60;99.90
36654;DHT22;22650;49.350;20.898;2023-12-07T09:28:27;0.50;99.90
36654;DHT22;22650;49.350;20.898;2023-12-07T09:31:02;0.60;99.90
36654;DHT22;22650;49.350;20.898;2023-12-07T09:33:36;0.60;99.90
36654;DHT22;22650;49.350;20.898;2023-12-07T09:36:10;0.60;99.90
36654;DHT22;22650;49.350;20.898;2023-12-07T09:38:44;0.70;99.90
36654;DHT22;22650;49.350;20.898;2023-12-07T09:41:19;0.70;99.90
36654;DHT22;22650;49.350;20.898;2023-12-07T09:43:53;0.70;99.90
36654;DHT22;22650;49.350;20.898;2023-12-07T09:46:28;0.80;99.90
36654;DHT22;22650;49.350;20.898;2023-12-07T09:49:02;0.90;99.90
36654;DHT22;22650;49.350;20.898;2023-12-07T09:51:36;0.90;99.90
36654;DHT22;22650;49.350;20.898;2023-12-07T09:54:10;0.90;99.90
36654;DHT22;22650;49.350;20.898;2023-12-07T09:56:45;0.90;99.90
36654;DHT22;22650;49.350;20.898;2023-12-07T09:59:19;0.90;99.90
36654;DHT22;22650;49.350;20.898;2023-12-07T10:01:53;1.00;99.90
36654;DHT22;22650;49.350;20.898;2023-12-07T10:04:27;1.00;99.90
36654;DHT22;22650;49.350;20.898;2023-12-07T10:07:01;1.00;99.90
36654;DHT22;22650;49.350;20.898;2023-12-07T10:09:37;1.00;99.90
36654;DHT22;22650;49.350;20.898;2023-12-07T10:12:13;1.10;99.90
36654;DHT22;22650;49.350;20.898;2023-12-07T10:14:46;1.10;99.90
36654;DHT22;22650;49.350;20.898;2023-12-07T10:17:20;1.20;99.90
36654;DHT22;22650;49.350;20.898;2023-12-07T10:20:07;1.30;99.90
36654;DHT22;22650;49.350;20.898;2023-12-07T10:22:42;1.30;99.90
36654;DHT22;22650;49.350;20.898;2023-12-07T10:25:15;1.30;99.90
36654;DHT22;22650;49.350;20.898;2023-12-07T10:27:55;1.30;99.90
36654;DHT22;22650;49.350;20.898;2023-12-07T10:30:29;1.40;99.90
36654;DHT22;22650;49.350;20.898;2023-12-07T10:33:03;1.40;99.90
36654;DHT22;22650;49.350;20.898;2023-12-07T10:35:39;1.40;99.90
36654;DHT22;22650;49.350;20.898;2023-12-07T10:38:14;1.40;99.90
36654;DHT22;22650;49.350;20.898;2023-12-07T10:40:49;1.40;99.90
36654;DHT22;22650;49.350;20.898;2023-12-07T10:43:25;1.40;99.90
36654;DHT22;22650;49.350;20.898;2023-12-07T10:45:59;1.40;99.90
36654;DHT22;22650;49.350;20.898;2023-12-07T10:48:33;1.40;99.90
36654;DHT22;22650;49.350;20.898;2023-12-07T10:51:09;1.30;99.90
36654;DHT22;22650;49.350;20.898;2023-12-07T10:53:44;1.40;99.90
36654;DHT22;22650;49.350;20.898;2023-12-07T10:56:24;1.40;99.90
36654;DHT22;22650;49.350;20.898;2023-12-07T10:59:01;1.40;99.90
36654;DHT22;22650;49.350;20.898;2023-12-07T11:01:35;1.40;99.90
36654;DHT22;22650;49.350;20.898;2023-12-07T11:04:11;1.50;99.90
36654;DHT22;22650;49.350;20.898;2023-12-07T11:06:49;1.50;99.90
36654;DHT22;22650;49.350;20.898;2023-12-07T11:09:27;1.50;99.90
36654;DHT22;22650;49.350;20.898;2023-12-07T11:12:06;1.60;99.90
36654;DHT22;22650;49.350;20.898;2023-12-07T11:14:45;1.70;99.90
36654;DHT22;22650;49.350;20.898;2023-12-07T11:17:20;1.70;99.90
36654;DHT22;22650;49.350;20.898;2023-12-07T11:19:55;1.80;99.90
36654;DHT22;22650;49.350;20.898;2023-12-07T11:22:31;1.80;99.90
36654;DHT22;22650;49.350;20.898;2023-12-07T11:25:05;1.80;99.90
36654;DHT22;22650;49.350;20.898;2023-12-07T11:27:43;1.80;99.90
36654;DHT22;22650;49.350;20.898;2023-12-07T11:30:20;1.90;99.90
36654;DHT22;22650;49.350;20.898;2023-12-07T11:32:55;1.90;99.90
36654;DHT22;22650;49.350;20.898;2023-12-07T11:35:28;1.90;99.90
36654;DHT22;22650;49.350;20.898;2023-12-07T11:38:04;1.90;99.90
36654;DHT22;22650;49.350;20.898;2023-12-07T11:40:41;1.90;99.90
36654;DHT22;22650;49.350;20.898;2023-12-07T11:43:19;1.90;99.90
36654;DHT22;22650;49.350;20.898;2023-12-07T11:46:06;1.90;99.90
36654;DHT22;22650;49.350;20.898;2023-12-07T11:48:46;1.90;99.90
36654;DHT22;22650;49.350;20.898;2023-12-07T11:51:21;1.90;99.90
36654;DHT22;22650;49.350;20.898;2023-12-07T11:53:55;1.90;99.90
36654;DHT22;22650;49.350;20.898;2023-12-07T11:56:29;1.90;99.90
36654;DHT22;22650;49.350;20.898;2023-12-07T11:59:03;1.90;99.90
36654;DHT22;22650;49.350;20.898;2023-12-07T12:01:38;1.90;99.90
36654;DHT22;22650;49.350;20.898;2023-12-07T12:04:12;1.80;99.90
36654;DHT22;22650;49.350;20.898;2023-12-07T12:06:45;1.80;99.90
36654;DHT22;22650;49.350;20.898;2023-12-07T12:09:19;1.70;99.90
36654;DHT22;22650;49.350;20.898;2023-12-07T12:12:03;1.70;99.90
36654;DHT22;22650;49.350;20.898;2023-12-07T12:14:37;1.70;99.90
36654;DHT22;22650;49.350;20.898;2023-12-07T12:17:15;1.70;99.90
36654;DHT22;22650;49.350;20.898;2023-12-07T12:19:48;1.60;99.90
36654;DHT22;22650;49.350;20.898;2023-12-07T12:22:27;1.70;99.90
36654;DHT22;22650;49.350;20.898;2023-12-07T12:25:02;1.60;99.90
36654;DHT22;22650;49.350;20.898;2023-12-07T12:27:36;1.60;99.90
36654;DHT22;22650;49.350;20.898;2023-12-07T12:30:10;1.60;99.90
36654;DHT22;22650;49.350;20.898;2023-12-07T12:32:47;1.60;99.90
36654;DHT22;22650;49.350;20.898;2023-12-07T12:35:21;1.60;99.90
36654;DHT22;22650;49.350;20.898;2023-12-07T12:37:55;1.50;99.90
36654;DHT22;22650;49.350;20.898;2023-12-07T12:40:29;1.50;99.90
36654;DHT22;22650;49.350;20.898;2023-12-07T12:43:05;1.50;99.90
36654;DHT22;22650;49.350;20.898;2023-12-07T12:45:39;1.50;99.90
36654;DHT22;22650;49.350;20.898;2023-12-07T12:48:14;1.60;99.90
36654;DHT22;22650;49.350;20.898;2023-12-07T12:50:47;1.60;99.90
36654;DHT22;22650;49.350;20.898;2023-12-07T12:53:21;1.60;99.90
36654;DHT22;22650;49.350;20.898;2023-12-07T12:55:55;1.60;99.90
36654;DHT22;22650;49.350;20.898;2023-12-07T12:58:30;1.60;99.90
36654;DHT22;22650;49.350;20.898;2023-12-07T13:01:04;1.60;99.90
36654;DHT22;22650;49.350;20.898;2023-12-07T13:03:40;1.60;99.90
36654;DHT22;22650;49.350;20.898;2023-12-07T13:06:14;1.60;99.90
36654;DHT22;22650;49.350;20.898;2023-12-07T13:08:49;1.60;99.90
36654;DHT22;22650;49.350;20.898;2023-12-07T13:11:23;1.50;99.90
36654;DHT22;22650;49.350;20.898;2023-12-07T13:14:00;1.50;99.90
36654;DHT22;22650;49.350;20.898;2023-12-07T13:16:39;1.50;99.90
36654;DHT22;22650;49.350;20.898;2023-12-07T13:19:14;1.50;99.90
36654;DHT22;22650;49.350;20.898;2023-12-07T13:21:48;1.50;99.90
36654;DHT22;22650;49.350;20.898;2023-12-07T13:24:21;1.50;99.90
36654;DHT22;22650;49.350;20.898;2023-12-07T13:26:56;1.40;99.90
36654;DHT22;22650;49.350;20.898;2023-12-07T13:29:30;1.40;99.90
36654;DHT22;22650;49.350;20.898;2023-12-07T13:32:08;1.40;99.90
36654;DHT22;22650;49.350;20.898;2023-12-07T13:34:43;1.40;99.90
36654;DHT22;22650;49.350;20.898;2023-12-07T13:37:17;1.40;99.90
36654;DHT22;22650;49.350;20.898;2023-12-07T13:39:52;1.40;99.90
36654;DHT22;22650;49.350;20.898;2023-12-07T13:42:28;1.40;99.90
36654;DHT22;22650;49.350;20.898;2023-12-07T13:45:02;1.40;99.90
36654;DHT22;22650;49.350;20.898;2023-12-07T13:47:35;1.40;99.90
36654;DHT22;22650;49.350;20.898;2023-12-07T13:50:11;1.40;99.90
36654;DHT22;22650;49.350;20.898;2023-12-07T13:52:45;1.40;99.90
36654;DHT22;22650;49.350;20.898;2023-12-07T13:55:19;1.40;99.90
36654;DHT22;22650;49.350;20.898;2023-12-07T13:57:52;1.40;99.90
36654;DHT22;22650;49.350;20.898;2023-12-07T14:00:29;1.40;99.90
36654;DHT22;22650;49.350;20.898;2023-12-07T14:03:04;1.30;99.90
36654;DHT22;22650;49.350;20.898;2023-12-07T14:05:39;1.20;99.90
36654;DHT22;22650;49.350;20.898;2023-12-07T14:08:13;1.20;99.90
36654;DHT22;22650;49.350;20.898;2023-12-07T14:10:47;1.20;99.90
36654;DHT22;22650;49.350;20.898;2023-12-07T14:13:21;1.20;99.90
36654;DHT22;22650;49.350;20.898;2023-12-07T14:15:56;1.20;99.90
36654;DHT22;22650;49.350;20.898;2023-12-07T14:18:44;1.20;99.90
36654;DHT22;22650;49.350;20.898;2023-12-07T14:21:37;1.20;99.90
36654;DHT22;22650;49.350;20.898;2023-12-07T14:24:25;1.20;99.90
36654;DHT22;22650;49.350;20.898;2023-12-07T14:26:59;1.10;99.90
36654;DHT22;22650;49.350;20.898;2023-12-07T14:29:33;1.20;99.90
36654;DHT22;22650;49.350;20.898;2023-12-07T14:32:07;1.10;99.90
36654;DHT22;22650;49.350;20.898;2023-12-07T14:34:42;1.10;99.90
36654;DHT22;22650;49.350;20.898;2023-12-07T14:37:17;1.20;99.90
36654;DHT22;22650;49.350;20.898;2023-12-07T14:39:50;1.20;99.90
36654;DHT22;22650;49.350;20.898;2023-12-07T14:42:24;1.10;99.90
36654;DHT22;22650;49.350;20.898;2023-12-07T14:44:58;1.10;99.90
36654;DHT22;22650;49.350;20.898;2023-12-07T14:47:32;1.10;99.90
36654;DHT22;22650;49.350;20.898;2023-12-07T14:50:06;1.10;99.90
36654;DHT22;22650;49.350;20.898;2023-12-07T14:52:41;1.10;99.90
36654;DHT22;22650;49.350;20.898;2023-12-07T14:55:15;1.10;99.90
36654;DHT22;22650;49.350;20.898;2023-12-07T14:57:51;1.10;99.90
36654;DHT22;22650;49.350;20.898;2023-12-07T15:00:24;1.10;99.90
36654;DHT22;22650;49.350;20.898;2023-12-07T15:02:58;1.00;99.90
36654;DHT22;22650;49.350;20.898;2023-12-07T15:05:32;0.90;99.90
36654;DHT22;22650;49.350;20.898;2023-12-07T15:08:07;1.00;99.90
36654;DHT22;22650;49.350;20.898;2023-12-07T15:10:41;0.90;99.90
36654;DHT22;22650;49.350;20.898;2023-12-07T15:13:15;0.90;99.90
36654;DHT22;22650;49.350;20.898;2023-12-07T15:15:49;0.90;99.90
36654;DHT22;22650;49.350;20.898;2023-12-07T15:18:22;0.80;99.90
36654;DHT22;22650;49.350;20.898;2023-12-07T15:20:56;0.80;99.90
36654;DHT22;22650;49.350;20.898;2023-12-07T15:23:31;0.80;99.90
36654;DHT22;22650;49.350;20.898;2023-12-07T15:26:05;0.80;99.90
36654;DHT22;22650;49.350;20.898;2023-12-07T15:28:41;0.80;99.90
36654;DHT22;22650;49.350;20.898;2023-12-07T15:31:15;0.70;99.90
36654;DHT22;22650;49.350;20.898;2023-12-07T15:33:49;0.70;99.90
36654;DHT22;22650;49.350;20.898;2023-12-07T15:36:23;0.70;99.90
36654;DHT22;22650;49.350;20.898;2023-12-07T15:38:59;0.70;99.90
36654;DHT22;22650;49.350;20.898;2023-12-07T15:41:32;0.70;99.90
36654;DHT22;22650;49.350;20.898;2023-12-07T15:44:06;0.70;99.90
36654;DHT22;22650;49.350;20.898;2023-12-07T15:46:43;0.60;99.90
36654;DHT22;22650;49.350;20.898;2023-12-07T15:49:17;0.60;99.90
36654;DHT22;22650;49.350;20.898;2023-12-07T15:51:51;0.60;99.90
36654;DHT22;22650;49.350;20.898;2023-12-07T15:54:31;0.60;99.90
36654;DHT22;22650;49.350;20.898;2023-12-07T15:57:12;0.50;99.90
36654;DHT22;22650;49.350;20.898;2023-12-07T15:59:46;0.50;99.90
36654;DHT22;22650;49.350;20.898;2023-12-07T16:02:21;0.50;99.90
36654;DHT22;22650;49.350;20.898;2023-12-07T16:04:55;0.50;99.90
36654;DHT22;22650;49.350;20.898;2023-12-07T16:07:29;0.50;99.90
36654;DHT22;22650;49.350;20.898;2023-12-07T16:10:05;0.60;99.90
36654;DHT22;22650;49.350;20.898;2023-12-07T16:12:41;0.50;99.90
36654;DHT22;22650;49.350;20.898;2023-12-07T16:15:14;0.50;99.90
36654;DHT22;22650;49.350;20.898;2023-12-07T16:17:48;0.50;99.90